Track Павлов Дмитрий

Time Latitude Longitude Accuracy (66% radius in meters) Altitude (meters) Speed (km/hour) Bearing (degrees) Battery (%) GPS flag
07:29:50 57.207646 60.123348 4.2880001068115 305 1.210000038147 77.900001525879 46 1 delete
07:29:42 57.207602 60.123205 5.3600001335144 302 1.6900000572205 45.299999237061 46 1 delete
07:29:39 57.207565 60.123162 5.3600001335144 301 1.1399999856949 27.700000762939 46 1 delete
07:29:34 57.207516 60.123128 6.4320001602173 302 1.0599999427795 22.10000038147 46 1 delete
07:29:28 57.207468 60.123077 8.576000213623 304 1.4800000190735 49.900001525879 46 1 delete
07:29:20 57.207443 60.123029 4.2880001068115 307 1.1200000047684 25.5 46 1 delete
07:29:17 57.207405 60.123027 4.2880001068115 310 1.4400000572205 20.10000038147 46 1 delete
07:29:09 57.207354 60.122961 3.2160000801086 314 1.039999961853 44.400001525879 46 1 delete
07:29:07 57.207338 60.122921 3.2160000801086 314 1.4800000190735 40.5 46 1 delete
07:29:02 57.207288 60.122844 3.2160000801086 313 1 37.299999237061 46 1 delete
07:28:56 57.207219 60.122732 3.2160000801086 314 1.539999961853 38.299999237061 46 1 delete
07:28:47 57.207150 60.122594 4.2880001068115 313 1.0900000333786 43.5 46 1 delete
07:28:45 57.207137 60.122576 4.2880001068115 313 0.91000002622604 26.60000038147 46 1 delete
07:28:37 57.207066 60.122502 4.2880001068115 315 1.0499999523163 29.700000762939 46 1 delete
07:28:35 57.207050 60.122500 4.2880001068115 316 1.0499999523163 30.39999961853 46 1 delete
07:28:27 57.206986 60.122425 4.2880001068115 316 1.2599999904633 40.799999237061 46 1 delete
07:28:24 57.206964 60.122387 4.2880001068115 317 1.4400000572205 39.200000762939 46 1 delete
07:28:20 57.206914 60.122314 4.2880001068115 317 2.0599999427795 40.700000762939 46 1 delete
07:28:15 57.206833 60.122227 4.2880001068115 318 1.1499999761581 7.4000000953674 46 1 delete
07:28:13 57.206816 60.122221 4.2880001068115 318 0 0 46 1 delete
07:28:03 57.206801 60.122211 3.2160000801086 317 0 0 46 1 delete
07:27:52 57.206785 60.122192 3.2160000801086 318 0 0 46 1 delete
07:27:41 57.206790 60.122180 3.2160000801086 318 0 0 46 1 delete
07:27:30 57.206789 60.122207 3.2160000801086 319 0 0 46 1 delete
07:27:19 57.206817 60.122208 3.2160000801086 319 0.40000000596046 21.5 46 1 delete
07:27:09 57.206819 60.122219 3.2160000801086 322 0 0 46 1 delete
07:26:58 57.206813 60.122224 3.2160000801086 323 0.94999998807907 357.29998779297 46 1 delete
07:26:54 57.206747 60.122280 5.3600001335144 326 2.7300000190735 323 46 1 delete
07:26:51 57.206663 60.122424 5.3600001335144 325 3.0199999809265 319.5 46 1 delete
07:26:48 57.206570 60.122518 7.5040001869202 326 4.4200000762939 26.10000038147 46 1 delete
07:26:47 57.206521 60.122439 7.5040001869202 326 3.8499999046326 22.89999961853 46 1 delete
07:26:45 57.206442 60.122381 6.4320001602173 326 3.9400000572205 16.89999961853 46 1 delete
07:26:42 57.206334 60.122331 5.3600001335144 326 6.039999961853 29.200000762939 46 1 delete
07:26:40 57.206245 60.122267 5.3600001335144 325 7.039999961853 32.599998474121 46 1 delete
07:26:38 57.206143 60.122169 5.3600001335144 324 7.7399997711182 30.10000038147 46 1 delete
07:26:36 57.206015 60.122044 5.3600001335144 324 6.4400000572205 24.799999237061 46 1 delete
07:26:35 57.205961 60.121985 6.4320001602173 324 6.0199999809265 25.299999237061 46 1 delete
07:26:34 57.205911 60.121947 6.4320001602173 324 6.0900001525879 23.10000038147 46 1 delete
07:26:32 57.205813 60.121863 5.3600001335144 325 6.6599998474121 27.700000762939 46 1 delete
07:26:30 57.205715 60.121755 5.3600001335144 326 5.2399997711182 38.099998474121 46 1 delete
07:26:28 57.205603 60.121598 5.3600001335144 327 4.0999999046326 42.799999237061 46 1 delete
07:26:25 57.205518 60.121434 4.2880001068115 327 3.9000000953674 59.5 46 1 delete
07:26:24 57.205496 60.121372 4.2880001068115 327 4.1900000572205 59.799999237061 46 1 delete
07:26:22 57.205458 60.121256 4.2880001068115 328 3.289999961853 52.599998474121 46 1 delete
07:26:19 57.205399 60.121097 3.2160000801086 326 2.9000000953674 55.5 46 1 delete
07:26:15 57.205350 60.120905 4.2880001068115 327 3.2200000286102 56.099998474121 46 1 delete
07:26:11 57.205294 60.120772 4.2880001068115 329 2.6800000667572 48.900001525879 46 1 delete
07:26:07 57.205226 60.120615 4.2880001068115 330 3.7300000190735 52.400001525879 46 1 delete
07:26:06 57.205203 60.120556 4.2880001068115 330 4.039999961853 55.900001525879 46 1 delete
07:26:04 57.205166 60.120448 4.2880001068115 327 3.0499999523163 52.5 46 1 delete